sensor_id;sensor_type;location;lat;lon;timestamp;P1;durP1;ratioP1;P2;durP2;ratioP2
11618;SDS011;5865;48.776;9.280;2024-03-02T00:00:29;17.67;;;12.07;;
11618;SDS011;5865;48.776;9.280;2024-03-02T00:02:57;19.30;;;11.87;;
11618;SDS011;5865;48.776;9.280;2024-03-02T00:05:25;19.13;;;12.27;;
11618;SDS011;5865;48.776;9.280;2024-03-02T00:07:53;21.83;;;12.53;;
11618;SDS011;5865;48.776;9.280;2024-03-02T00:10:22;20.10;;;13.83;;
11618;SDS011;5865;48.776;9.280;2024-03-02T00:12:54;21.63;;;13.70;;
11618;SDS011;5865;48.776;9.280;2024-03-02T00:15:32;19.07;;;12.93;;
11618;SDS011;5865;48.776;9.280;2024-03-02T00:18:08;19.70;;;12.80;;
11618;SDS011;5865;48.776;9.280;2024-03-02T00:20:38;20.70;;;13.53;;
11618;SDS011;5865;48.776;9.280;2024-03-02T00:23:06;19.13;;;13.67;;
11618;SDS011;5865;48.776;9.280;2024-03-02T00:25:40;21.40;;;14.93;;
11618;SDS011;5865;48.776;9.280;2024-03-02T00:30:57;21.87;;;14.30;;
11618;SDS011;5865;48.776;9.280;2024-03-02T00:33:26;19.07;;;12.77;;
11618;SDS011;5865;48.776;9.280;2024-03-02T00:35:57;19.90;;;12.93;;
11618;SDS011;5865;48.776;9.280;2024-03-02T00:38:26;17.53;;;12.10;;
11618;SDS011;5865;48.776;9.280;2024-03-02T00:40:53;19.67;;;12.57;;
11618;SDS011;5865;48.776;9.280;2024-03-02T00:46:17;19.97;;;13.77;;
11618;SDS011;5865;48.776;9.280;2024-03-02T00:48:48;17.23;;;12.63;;
11618;SDS011;5865;48.776;9.280;2024-03-02T00:51:24;19.37;;;14.13;;
11618;SDS011;5865;48.776;9.280;2024-03-02T00:53:53;18.73;;;13.10;;
11618;SDS011;5865;48.776;9.280;2024-03-02T00:56:22;20.20;;;13.43;;
11618;SDS011;5865;48.776;9.280;2024-03-02T00:58:49;18.73;;;12.37;;
11618;SDS011;5865;48.776;9.280;2024-03-02T01:01:17;20.70;;;13.20;;
11618;SDS011;5865;48.776;9.280;2024-03-02T01:03:45;20.93;;;13.57;;
11618;SDS011;5865;48.776;9.280;2024-03-02T01:06:12;23.57;;;14.13;;
11618;SDS011;5865;48.776;9.280;2024-03-02T01:08:41;21.00;;;13.60;;
11618;SDS011;5865;48.776;9.280;2024-03-02T01:11:08;21.10;;;13.20;;
11618;SDS011;5865;48.776;9.280;2024-03-02T01:13:35;21.07;;;12.97;;
11618;SDS011;5865;48.776;9.280;2024-03-02T01:16:02;21.50;;;13.00;;
11618;SDS011;5865;48.776;9.280;2024-03-02T01:18:30;20.37;;;12.63;;
11618;SDS011;5865;48.776;9.280;2024-03-02T01:20:57;20.90;;;13.13;;
11618;SDS011;5865;48.776;9.280;2024-03-02T01:23:24;21.97;;;13.17;;
11618;SDS011;5865;48.776;9.280;2024-03-02T01:25:53;20.17;;;12.67;;
11618;SDS011;5865;48.776;9.280;2024-03-02T01:28:20;17.53;;;11.73;;
11618;SDS011;5865;48.776;9.280;2024-03-02T01:30:48;19.17;;;12.40;;
11618;SDS011;5865;48.776;9.280;2024-03-02T01:33:15;17.77;;;12.10;;
11618;SDS011;5865;48.776;9.280;2024-03-02T01:35:42;20.57;;;13.13;;
11618;SDS011;5865;48.776;9.280;2024-03-02T01:38:09;19.53;;;12.77;;
11618;SDS011;5865;48.776;9.280;2024-03-02T01:40:37;18.63;;;12.17;;
11618;SDS011;5865;48.776;9.280;2024-03-02T01:43:06;20.37;;;12.67;;
11618;SDS011;5865;48.776;9.280;2024-03-02T01:45:33;20.77;;;13.07;;
11618;SDS011;5865;48.776;9.280;2024-03-02T01:48:01;21.13;;;13.00;;
11618;SDS011;5865;48.776;9.280;2024-03-02T01:50:29;20.73;;;13.83;;
11618;SDS011;5865;48.776;9.280;2024-03-02T01:52:58;21.50;;;13.57;;
11618;SDS011;5865;48.776;9.280;2024-03-02T01:55:26;20.50;;;13.27;;
11618;SDS011;5865;48.776;9.280;2024-03-02T01:57:55;22.87;;;14.23;;
11618;SDS011;5865;48.776;9.280;2024-03-02T02:00:24;19.07;;;13.30;;
11618;SDS011;5865;48.776;9.280;2024-03-02T02:02:51;21.80;;;13.80;;
11618;SDS011;5865;48.776;9.280;2024-03-02T02:05:18;23.43;;;14.20;;
11618;SDS011;5865;48.776;9.280;2024-03-02T02:07:46;21.80;;;13.57;;
11618;SDS011;5865;48.776;9.280;2024-03-02T02:10:13;25.40;;;14.37;;
11618;SDS011;5865;48.776;9.280;2024-03-02T02:12:40;21.67;;;13.57;;
11618;SDS011;5865;48.776;9.280;2024-03-02T02:15:25;22.47;;;12.83;;
11618;SDS011;5865;48.776;9.280;2024-03-02T02:17:52;22.47;;;13.77;;
11618;SDS011;5865;48.776;9.280;2024-03-02T02:20:19;19.50;;;12.23;;
11618;SDS011;5865;48.776;9.280;2024-03-02T02:22:57;22.23;;;13.13;;
11618;SDS011;5865;48.776;9.280;2024-03-02T02:25:25;20.50;;;13.07;;
11618;SDS011;5865;48.776;9.280;2024-03-02T02:27:53;19.30;;;12.13;;
11618;SDS011;5865;48.776;9.280;2024-03-02T02:30:20;18.73;;;12.93;;
11618;SDS011;5865;48.776;9.280;2024-03-02T02:32:51;21.50;;;12.67;;
11618;SDS011;5865;48.776;9.280;2024-03-02T02:35:18;19.97;;;12.83;;
11618;SDS011;5865;48.776;9.280;2024-03-02T02:37:45;23.60;;;13.23;;
11618;SDS011;5865;48.776;9.280;2024-03-02T02:40:14;19.10;;;11.47;;
11618;SDS011;5865;48.776;9.280;2024-03-02T02:42:44;21.03;;;12.83;;
11618;SDS011;5865;48.776;9.280;2024-03-02T02:45:11;20.60;;;11.87;;
11618;SDS011;5865;48.776;9.280;2024-03-02T02:47:39;20.53;;;12.43;;
11618;SDS011;5865;48.776;9.280;2024-03-02T02:50:07;19.80;;;12.63;;
11618;SDS011;5865;48.776;9.280;2024-03-02T02:52:35;19.90;;;12.97;;
11618;SDS011;5865;48.776;9.280;2024-03-02T02:55:04;20.87;;;13.17;;
11618;SDS011;5865;48.776;9.280;2024-03-02T02:57:34;23.27;;;13.33;;
11618;SDS011;5865;48.776;9.280;2024-03-02T03:00:03;20.03;;;12.53;;
11618;SDS011;5865;48.776;9.280;2024-03-02T03:02:35;17.90;;;11.23;;
11618;SDS011;5865;48.776;9.280;2024-03-02T03:05:04;20.70;;;11.73;;
11618;SDS011;5865;48.776;9.280;2024-03-02T03:07:32;19.43;;;11.73;;
11618;SDS011;5865;48.776;9.280;2024-03-02T03:10:00;24.57;;;12.67;;
11618;SDS011;5865;48.776;9.280;2024-03-02T03:12:28;21.00;;;13.50;;
11618;SDS011;5865;48.776;9.280;2024-03-02T03:14:57;22.17;;;13.47;;
11618;SDS011;5865;48.776;9.280;2024-03-02T03:17:25;22.63;;;12.60;;
11618;SDS011;5865;48.776;9.280;2024-03-02T03:19:52;22.37;;;13.10;;
11618;SDS011;5865;48.776;9.280;2024-03-02T03:22:19;23.20;;;13.93;;
11618;SDS011;5865;48.776;9.280;2024-03-02T03:24:46;23.63;;;13.93;;
11618;SDS011;5865;48.776;9.280;2024-03-02T03:27:13;24.67;;;14.40;;
11618;SDS011;5865;48.776;9.280;2024-03-02T03:29:42;26.17;;;14.03;;
11618;SDS011;5865;48.776;9.280;2024-03-02T03:32:10;23.97;;;13.57;;
11618;SDS011;5865;48.776;9.280;2024-03-02T03:34:37;22.70;;;13.53;;
11618;SDS011;5865;48.776;9.280;2024-03-02T03:37:05;22.17;;;13.40;;
11618;SDS011;5865;48.776;9.280;2024-03-02T03:39:33;23.57;;;13.70;;
11618;SDS011;5865;48.776;9.280;2024-03-02T03:42:00;21.63;;;12.83;;
11618;SDS011;5865;48.776;9.280;2024-03-02T03:44:28;22.77;;;13.27;;
11618;SDS011;5865;48.776;9.280;2024-03-02T03:46:54;19.50;;;11.73;;
11618;SDS011;5865;48.776;9.280;2024-03-02T03:49:23;20.63;;;12.20;;
11618;SDS011;5865;48.776;9.280;2024-03-02T03:51:50;22.00;;;12.33;;
11618;SDS011;5865;48.776;9.280;2024-03-02T03:54:18;25.50;;;13.20;;
11618;SDS011;5865;48.776;9.280;2024-03-02T03:56:45;19.73;;;12.07;;
11618;SDS011;5865;48.776;9.280;2024-03-02T03:59:12;22.53;;;12.40;;
11618;SDS011;5865;48.776;9.280;2024-03-02T04:01:39;23.57;;;13.00;;
11618;SDS011;5865;48.776;9.280;2024-03-02T04:04:06;22.60;;;13.13;;
11618;SDS011;5865;48.776;9.280;2024-03-02T04:06:34;20.13;;;12.47;;
11618;SDS011;5865;48.776;9.280;2024-03-02T04:09:01;23.77;;;12.93;;
11618;SDS011;5865;48.776;9.280;2024-03-02T04:11:29;20.50;;;11.77;;
11618;SDS011;5865;48.776;9.280;2024-03-02T04:13:57;21.07;;;12.40;;
11618;SDS011;5865;48.776;9.280;2024-03-02T04:16:24;22.80;;;13.67;;
11618;SDS011;5865;48.776;9.280;2024-03-02T04:18:51;21.77;;;13.00;;
11618;SDS011;5865;48.776;9.280;2024-03-02T04:21:18;21.37;;;12.40;;
11618;SDS011;5865;48.776;9.280;2024-03-02T04:23:46;20.70;;;12.57;;
11618;SDS011;5865;48.776;9.280;2024-03-02T04:26:14;27.40;;;12.73;;
11618;SDS011;5865;48.776;9.280;2024-03-02T04:28:44;26.60;;;13.70;;
11618;SDS011;5865;48.776;9.280;2024-03-02T04:31:12;24.83;;;13.83;;
11618;SDS011;5865;48.776;9.280;2024-03-02T04:33:39;24.73;;;13.10;;
11618;SDS011;5865;48.776;9.280;2024-03-02T04:36:06;23.60;;;13.23;;
11618;SDS011;5865;48.776;9.280;2024-03-02T04:38:34;23.00;;;12.73;;
11618;SDS011;5865;48.776;9.280;2024-03-02T04:41:03;24.50;;;12.53;;
11618;SDS011;5865;48.776;9.280;2024-03-02T04:43:31;22.37;;;12.20;;
11618;SDS011;5865;48.776;9.280;2024-03-02T04:45:58;24.57;;;12.87;;
11618;SDS011;5865;48.776;9.280;2024-03-02T04:48:25;22.43;;;13.00;;
11618;SDS011;5865;48.776;9.280;2024-03-02T04:50:52;21.93;;;12.13;;
11618;SDS011;5865;48.776;9.280;2024-03-02T04:53:19;25.57;;;13.70;;
11618;SDS011;5865;48.776;9.280;2024-03-02T04:55:47;24.13;;;13.60;;
11618;SDS011;5865;48.776;9.280;2024-03-02T04:58:44;23.20;;;13.27;;
11618;SDS011;5865;48.776;9.280;2024-03-02T05:01:11;22.10;;;12.27;;
11618;SDS011;5865;48.776;9.280;2024-03-02T05:03:38;23.57;;;12.50;;
11618;SDS011;5865;48.776;9.280;2024-03-02T05:06:05;26.97;;;13.27;;
11618;SDS011;5865;48.776;9.280;2024-03-02T05:08:33;22.70;;;13.00;;
11618;SDS011;5865;48.776;9.280;2024-03-02T05:11:01;21.70;;;13.00;;
11618;SDS011;5865;48.776;9.280;2024-03-02T05:13:49;26.40;;;13.10;;
11618;SDS011;5865;48.776;9.280;2024-03-02T05:16:16;24.17;;;13.33;;
11618;SDS011;5865;48.776;9.280;2024-03-02T05:18:43;25.47;;;13.63;;
11618;SDS011;5865;48.776;9.280;2024-03-02T05:21:11;23.37;;;12.83;;
11618;SDS011;5865;48.776;9.280;2024-03-02T05:23:38;25.43;;;13.53;;
11618;SDS011;5865;48.776;9.280;2024-03-02T05:26:05;25.63;;;14.00;;
11618;SDS011;5865;48.776;9.280;2024-03-02T05:28:33;24.40;;;13.90;;
11618;SDS011;5865;48.776;9.280;2024-03-02T05:31:02;28.00;;;14.50;;
11618;SDS011;5865;48.776;9.280;2024-03-02T05:33:29;29.40;;;14.70;;
11618;SDS011;5865;48.776;9.280;2024-03-02T05:35:58;26.80;;;14.50;;
11618;SDS011;5865;48.776;9.280;2024-03-02T05:38:27;24.80;;;13.60;;
11618;SDS011;5865;48.776;9.280;2024-03-02T05:40:53;28.67;;;14.60;;
11618;SDS011;5865;48.776;9.280;2024-03-02T05:43:20;25.73;;;14.03;;
11618;SDS011;5865;48.776;9.280;2024-03-02T05:45:47;28.30;;;14.00;;
11618;SDS011;5865;48.776;9.280;2024-03-02T05:48:16;28.37;;;14.73;;
11618;SDS011;5865;48.776;9.280;2024-03-02T05:50:43;30.23;;;15.63;;
11618;SDS011;5865;48.776;9.280;2024-03-02T05:53:10;27.80;;;15.33;;
11618;SDS011;5865;48.776;9.280;2024-03-02T05:55:37;33.07;;;16.27;;
11618;SDS011;5865;48.776;9.280;2024-03-02T05:58:04;28.30;;;14.63;;
11618;SDS011;5865;48.776;9.280;2024-03-02T06:00:47;29.60;;;14.50;;
11618;SDS011;5865;48.776;9.280;2024-03-02T06:03:15;28.80;;;15.40;;
11618;SDS011;5865;48.776;9.280;2024-03-02T06:05:44;31.10;;;16.07;;
11618;SDS011;5865;48.776;9.280;2024-03-02T06:08:14;30.20;;;16.30;;
11618;SDS011;5865;48.776;9.280;2024-03-02T06:10:41;33.97;;;16.60;;
11618;SDS011;5865;48.776;9.280;2024-03-02T06:13:08;29.93;;;15.20;;
11618;SDS011;5865;48.776;9.280;2024-03-02T06:15:35;25.73;;;14.30;;
11618;SDS011;5865;48.776;9.280;2024-03-02T06:18:03;28.83;;;14.60;;
11618;SDS011;5865;48.776;9.280;2024-03-02T06:20:33;32.63;;;15.80;;
11618;SDS011;5865;48.776;9.280;2024-03-02T06:23:00;31.50;;;15.67;;
11618;SDS011;5865;48.776;9.280;2024-03-02T06:25:28;31.07;;;16.50;;
11618;SDS011;5865;48.776;9.280;2024-03-02T06:27:55;37.37;;;17.90;;
11618;SDS011;5865;48.776;9.280;2024-03-02T06:30:23;33.83;;;17.57;;
11618;SDS011;5865;48.776;9.280;2024-03-02T06:32:49;36.00;;;17.60;;
11618;SDS011;5865;48.776;9.280;2024-03-02T06:35:16;32.70;;;15.77;;
11618;SDS011;5865;48.776;9.280;2024-03-02T06:37:45;29.00;;;15.73;;
11618;SDS011;5865;48.776;9.280;2024-03-02T06:40:12;29.30;;;16.10;;
11618;SDS011;5865;48.776;9.280;2024-03-02T06:42:39;36.23;;;19.40;;
11618;SDS011;5865;48.776;9.280;2024-03-02T06:45:07;32.63;;;16.80;;
11618;SDS011;5865;48.776;9.280;2024-03-02T06:47:34;31.63;;;15.33;;
11618;SDS011;5865;48.776;9.280;2024-03-02T06:50:01;32.97;;;16.57;;
11618;SDS011;5865;48.776;9.280;2024-03-02T06:52:29;32.80;;;15.87;;
11618;SDS011;5865;48.776;9.280;2024-03-02T06:54:58;29.00;;;15.10;;
11618;SDS011;5865;48.776;9.280;2024-03-02T06:57:25;32.57;;;16.83;;
11618;SDS011;5865;48.776;9.280;2024-03-02T06:59:52;29.70;;;15.50;;
11618;SDS011;5865;48.776;9.280;2024-03-02T07:02:23;38.00;;;18.93;;
11618;SDS011;5865;48.776;9.280;2024-03-02T07:04:52;35.20;;;18.50;;
11618;SDS011;5865;48.776;9.280;2024-03-02T07:07:19;39.13;;;20.97;;
11618;SDS011;5865;48.776;9.280;2024-03-02T07:09:46;42.93;;;20.63;;
11618;SDS011;5865;48.776;9.280;2024-03-02T07:12:18;39.07;;;20.47;;
11618;SDS011;5865;48.776;9.280;2024-03-02T07:14:45;48.13;;;21.70;;
11618;SDS011;5865;48.776;9.280;2024-03-02T07:17:36;42.97;;;21.20;;
11618;SDS011;5865;48.776;9.280;2024-03-02T07:20:04;42.87;;;20.70;;
11618;SDS011;5865;48.776;9.280;2024-03-02T07:22:32;40.27;;;19.03;;
11618;SDS011;5865;48.776;9.280;2024-03-02T07:24:59;36.63;;;19.30;;
11618;SDS011;5865;48.776;9.280;2024-03-02T07:27:29;38.37;;;19.73;;
11618;SDS011;5865;48.776;9.280;2024-03-02T07:29:57;37.43;;;19.53;;
11618;SDS011;5865;48.776;9.280;2024-03-02T07:32:24;34.73;;;19.23;;
11618;SDS011;5865;48.776;9.280;2024-03-02T07:34:51;34.10;;;18.53;;
11618;SDS011;5865;48.776;9.280;2024-03-02T07:37:18;36.30;;;20.20;;
11618;SDS011;5865;48.776;9.280;2024-03-02T07:39:45;34.90;;;19.00;;
11618;SDS011;5865;48.776;9.280;2024-03-02T07:42:13;33.47;;;18.17;;
11618;SDS011;5865;48.776;9.280;2024-03-02T07:44:43;29.57;;;17.70;;
11618;SDS011;5865;48.776;9.280;2024-03-02T07:47:10;27.63;;;17.03;;
11618;SDS011;5865;48.776;9.280;2024-03-02T07:49:38;25.43;;;16.77;;
11618;SDS011;5865;48.776;9.280;2024-03-02T07:52:05;20.57;;;14.27;;
11618;SDS011;5865;48.776;9.280;2024-03-02T07:54:32;20.73;;;14.13;;
11618;SDS011;5865;48.776;9.280;2024-03-02T07:56:59;18.73;;;13.33;;
11618;SDS011;5865;48.776;9.280;2024-03-02T07:59:27;20.30;;;13.40;;
11618;SDS011;5865;48.776;9.280;2024-03-02T08:01:56;17.80;;;12.83;;
11618;SDS011;5865;48.776;9.280;2024-03-02T08:07:17;17.40;;;12.60;;
11618;SDS011;5865;48.776;9.280;2024-03-02T08:09:44;17.27;;;12.17;;
11618;SDS011;5865;48.776;9.280;2024-03-02T08:12:11;17.50;;;12.27;;
11618;SDS011;5865;48.776;9.280;2024-03-02T08:14:38;16.97;;;11.60;;
11618;SDS011;5865;48.776;9.280;2024-03-02T08:17:06;16.43;;;11.27;;
11618;SDS011;5865;48.776;9.280;2024-03-02T08:19:35;13.60;;;10.50;;
11618;SDS011;5865;48.776;9.280;2024-03-02T08:22:02;15.80;;;11.03;;
11618;SDS011;5865;48.776;9.280;2024-03-02T08:24:29;13.73;;;10.40;;
11618;SDS011;5865;48.776;9.280;2024-03-02T08:26:57;14.17;;;9.63;;
11618;SDS011;5865;48.776;9.280;2024-03-02T08:29:24;12.10;;;9.23;;
11618;SDS011;5865;48.776;9.280;2024-03-02T08:31:51;11.90;;;9.27;;
11618;SDS011;5865;48.776;9.280;2024-03-02T08:34:20;12.73;;;8.80;;
11618;SDS011;5865;48.776;9.280;2024-03-02T08:36:47;11.03;;;7.70;;
11618;SDS011;5865;48.776;9.280;2024-03-02T08:39:15;9.40;;;7.67;;
11618;SDS011;5865;48.776;9.280;2024-03-02T08:41:42;12.03;;;8.80;;
11618;SDS011;5865;48.776;9.280;2024-03-02T08:44:11;11.33;;;8.53;;
11618;SDS011;5865;48.776;9.280;2024-03-02T08:46:38;10.37;;;7.60;;
11618;SDS011;5865;48.776;9.280;2024-03-02T08:49:05;11.33;;;9.10;;
11618;SDS011;5865;48.776;9.280;2024-03-02T08:51:34;13.90;;;8.70;;
11618;SDS011;5865;48.776;9.280;2024-03-02T08:54:01;11.53;;;8.53;;
11618;SDS011;5865;48.776;9.280;2024-03-02T08:56:29;10.17;;;8.50;;
11618;SDS011;5865;48.776;9.280;2024-03-02T08:58:56;10.83;;;7.93;;
11618;SDS011;5865;48.776;9.280;2024-03-02T09:01:24;8.43;;;6.50;;
11618;SDS011;5865;48.776;9.280;2024-03-02T09:03:51;9.53;;;6.60;;
11618;SDS011;5865;48.776;9.280;2024-03-02T09:06:18;6.40;;;4.73;;
11618;SDS011;5865;48.776;9.280;2024-03-02T09:08:48;5.77;;;4.87;;
11618;SDS011;5865;48.776;9.280;2024-03-02T09:11:17;6.90;;;4.80;;
11618;SDS011;5865;48.776;9.280;2024-03-02T09:13:44;5.37;;;4.27;;
11618;SDS011;5865;48.776;9.280;2024-03-02T09:16:12;5.13;;;4.27;;
11618;SDS011;5865;48.776;9.280;2024-03-02T09:43:05;4.70;;;3.80;;
11618;SDS011;5865;48.776;9.280;2024-03-02T09:45:52;5.90;;;3.40;;
11618;SDS011;5865;48.776;9.280;2024-03-02T09:49:03;4.53;;;3.53;;
11618;SDS011;5865;48.776;9.280;2024-03-02T09:52:23;4.33;;;3.20;;
11618;SDS011;5865;48.776;9.280;2024-03-02T09:55:37;4.77;;;3.27;;
11618;SDS011;5865;48.776;9.280;2024-03-02T10:12:19;3.27;;;2.63;;
11618;SDS011;5865;48.776;9.280;2024-03-02T11:13:52;2.80;;;2.30;;
11618;SDS011;5865;48.776;9.280;2024-03-02T11:16:45;2.85;;;2.55;;
11618;SDS011;5865;48.776;9.280;2024-03-02T11:19:45;4.47;;;2.42;;
11618;SDS011;5865;48.776;9.280;2024-03-02T11:22:42;3.33;;;2.57;;
11618;SDS011;5865;48.776;9.280;2024-03-02T15:01:11;1.02;;;0.80;;
11618;SDS011;5865;48.776;9.280;2024-03-02T15:03:38;0.73;;;0.73;;
11618;SDS011;5865;48.776;9.280;2024-03-02T15:06:06;0.85;;;0.82;;
11618;SDS011;5865;48.776;9.280;2024-03-02T15:08:33;1.27;;;1.00;;
11618;SDS011;5865;48.776;9.280;2024-03-02T15:11:00;1.52;;;0.98;;
11618;SDS011;5865;48.776;9.280;2024-03-02T15:13:29;1.58;;;1.30;;
11618;SDS011;5865;48.776;9.280;2024-03-02T15:15:56;2.13;;;1.20;;
11618;SDS011;5865;48.776;9.280;2024-03-02T15:18:24;0.90;;;0.70;;
11618;SDS011;5865;48.776;9.280;2024-03-02T15:20:52;1.75;;;0.85;;
11618;SDS011;5865;48.776;9.280;2024-03-02T15:23:19;1.00;;;0.90;;
11618;SDS011;5865;48.776;9.280;2024-03-02T15:25:46;1.30;;;1.20;;
11618;SDS011;5865;48.776;9.280;2024-03-02T15:28:13;1.10;;;1.00;;
11618;SDS011;5865;48.776;9.280;2024-03-02T15:30:40;0.95;;;0.80;;
11618;SDS011;5865;48.776;9.280;2024-03-02T15:33:07;2.08;;;1.00;;
11618;SDS011;5865;48.776;9.280;2024-03-02T15:35:35;0.98;;;0.88;;
11618;SDS011;5865;48.776;9.280;2024-03-02T15:38:02;2.40;;;1.00;;
11618;SDS011;5865;48.776;9.280;2024-03-02T15:40:30;1.08;;;0.98;;
11618;SDS011;5865;48.776;9.280;2024-03-02T15:42:57;2.03;;;0.95;;
11618;SDS011;5865;48.776;9.280;2024-03-02T15:45:24;1.00;;;0.90;;
11618;SDS011;5865;48.776;9.280;2024-03-02T15:47:58;1.05;;;0.95;;
11618;SDS011;5865;48.776;9.280;2024-03-02T15:50:25;1.10;;;1.00;;
11618;SDS011;5865;48.776;9.280;2024-03-02T15:52:53;1.15;;;1.00;;
11618;SDS011;5865;48.776;9.280;2024-03-02T15:55:21;0.93;;;0.88;;
11618;SDS011;5865;48.776;9.280;2024-03-02T15:57:48;1.02;;;0.93;;
11618;SDS011;5865;48.776;9.280;2024-03-02T16:00:15;1.20;;;1.10;;
11618;SDS011;5865;48.776;9.280;2024-03-02T16:02:42;1.83;;;1.00;;
11618;SDS011;5865;48.776;9.280;2024-03-02T16:05:09;0.80;;;0.80;;
11618;SDS011;5865;48.776;9.280;2024-03-02T16:07:36;1.10;;;1.00;;
11618;SDS011;5865;48.776;9.280;2024-03-02T16:10:05;1.20;;;1.10;;
11618;SDS011;5865;48.776;9.280;2024-03-02T16:12:33;2.20;;;1.00;;
11618;SDS011;5865;48.776;9.280;2024-03-02T16:15:00;1.92;;;1.10;;
11618;SDS011;5865;48.776;9.280;2024-03-02T16:17:27;1.10;;;1.00;;
11618;SDS011;5865;48.776;9.280;2024-03-02T16:19:54;1.37;;;1.10;;
11618;SDS011;5865;48.776;9.280;2024-03-02T16:22:22;1.70;;;1.20;;
11618;SDS011;5865;48.776;9.280;2024-03-02T16:24:50;2.00;;;1.00;;
11618;SDS011;5865;48.776;9.280;2024-03-02T16:27:19;1.87;;;1.13;;
11618;SDS011;5865;48.776;9.280;2024-03-02T16:29:46;3.40;;;1.27;;
11618;SDS011;5865;48.776;9.280;2024-03-02T16:32:13;1.67;;;1.30;;
11618;SDS011;5865;48.776;9.280;2024-03-02T16:34:40;1.30;;;1.17;;
11618;SDS011;5865;48.776;9.280;2024-03-02T16:37:07;1.40;;;1.30;;
11618;SDS011;5865;48.776;9.280;2024-03-02T16:39:34;2.33;;;1.67;;
11618;SDS011;5865;48.776;9.280;2024-03-02T16:42:01;1.50;;;1.40;;
11618;SDS011;5865;48.776;9.280;2024-03-02T16:44:30;1.83;;;1.47;;
11618;SDS011;5865;48.776;9.280;2024-03-02T16:46:57;3.47;;;2.00;;
11618;SDS011;5865;48.776;9.280;2024-03-02T16:49:24;1.70;;;1.60;;
11618;SDS011;5865;48.776;9.280;2024-03-02T16:51:51;2.73;;;1.90;;
11618;SDS011;5865;48.776;9.280;2024-03-02T16:54:18;3.53;;;1.80;;
11618;SDS011;5865;48.776;9.280;2024-03-02T16:56:45;2.00;;;1.80;;
11618;SDS011;5865;48.776;9.280;2024-03-02T16:59:12;2.60;;;2.00;;
11618;SDS011;5865;48.776;9.280;2024-03-02T17:01:40;2.93;;;2.10;;
11618;SDS011;5865;48.776;9.280;2024-03-02T17:04:07;2.30;;;1.90;;
11618;SDS011;5865;48.776;9.280;2024-03-02T17:06:35;2.10;;;1.90;;
11618;SDS011;5865;48.776;9.280;2024-03-02T17:09:02;2.83;;;1.60;;
11618;SDS011;5865;48.776;9.280;2024-03-02T17:11:29;2.33;;;1.50;;
11618;SDS011;5865;48.776;9.280;2024-03-02T17:13:56;2.33;;;1.80;;
11618;SDS011;5865;48.776;9.280;2024-03-02T17:16:24;4.43;;;2.40;;
11618;SDS011;5865;48.776;9.280;2024-03-02T17:18:53;3.67;;;1.93;;
11618;SDS011;5865;48.776;9.280;2024-03-02T17:21:20;2.80;;;1.90;;
11618;SDS011;5865;48.776;9.280;2024-03-02T17:23:48;2.10;;;1.90;;
11618;SDS011;5865;48.776;9.280;2024-03-02T17:26:15;2.67;;;1.70;;
11618;SDS011;5865;48.776;9.280;2024-03-02T17:28:42;4.70;;;2.40;;
11618;SDS011;5865;48.776;9.280;2024-03-02T17:31:09;4.57;;;3.00;;
11618;SDS011;5865;48.776;9.280;2024-03-02T17:33:36;3.03;;;2.67;;
11618;SDS011;5865;48.776;9.280;2024-03-02T17:36:05;4.27;;;2.50;;
11618;SDS011;5865;48.776;9.280;2024-03-02T17:38:32;4.27;;;2.50;;
11618;SDS011;5865;48.776;9.280;2024-03-02T17:41:00;3.77;;;2.80;;
11618;SDS011;5865;48.776;9.280;2024-03-02T17:43:29;3.70;;;3.07;;
11618;SDS011;5865;48.776;9.280;2024-03-02T17:45:56;5.00;;;3.70;;
11618;SDS011;5865;48.776;9.280;2024-03-02T17:48:24;4.20;;;3.30;;
11618;SDS011;5865;48.776;9.280;2024-03-02T17:50:51;6.77;;;4.47;;
11618;SDS011;5865;48.776;9.280;2024-03-02T17:53:20;5.60;;;4.30;;
11618;SDS011;5865;48.776;9.280;2024-03-02T17:55:47;4.33;;;3.93;;
11618;SDS011;5865;48.776;9.280;2024-03-02T17:58:14;10.17;;;7.27;;
11618;SDS011;5865;48.776;9.280;2024-03-02T18:00:41;6.40;;;5.03;;
11618;SDS011;5865;48.776;9.280;2024-03-02T18:03:10;6.60;;;5.27;;
11618;SDS011;5865;48.776;9.280;2024-03-02T18:05:37;6.93;;;4.90;;
11618;SDS011;5865;48.776;9.280;2024-03-02T18:08:04;8.03;;;6.17;;
11618;SDS011;5865;48.776;9.280;2024-03-02T18:10:33;8.63;;;6.53;;
11618;SDS011;5865;48.776;9.280;2024-03-02T18:13:00;10.70;;;6.63;;
11618;SDS011;5865;48.776;9.280;2024-03-02T18:15:27;9.17;;;6.60;;
11618;SDS011;5865;48.776;9.280;2024-03-02T18:17:54;8.97;;;6.50;;
11618;SDS011;5865;48.776;9.280;2024-03-02T18:20:21;8.40;;;6.03;;
11618;SDS011;5865;48.776;9.280;2024-03-02T18:22:48;8.80;;;6.30;;
11618;SDS011;5865;48.776;9.280;2024-03-02T18:25:15;10.30;;;6.50;;
11618;SDS011;5865;48.776;9.280;2024-03-02T18:27:43;8.77;;;5.97;;
11618;SDS011;5865;48.776;9.280;2024-03-02T18:30:11;10.87;;;6.90;;
11618;SDS011;5865;48.776;9.280;2024-03-02T18:32:38;10.80;;;7.33;;
11618;SDS011;5865;48.776;9.280;2024-03-02T18:35:06;8.93;;;7.00;;
11618;SDS011;5865;48.776;9.280;2024-03-02T18:37:34;11.23;;;7.60;;
11618;SDS011;5865;48.776;9.280;2024-03-02T18:40:01;10.23;;;7.20;;
11618;SDS011;5865;48.776;9.280;2024-03-02T18:42:30;13.40;;;8.80;;
11618;SDS011;5865;48.776;9.280;2024-03-02T18:44:58;11.00;;;8.47;;
11618;SDS011;5865;48.776;9.280;2024-03-02T18:47:28;13.43;;;9.10;;
11618;SDS011;5865;48.776;9.280;2024-03-02T18:49:55;13.27;;;8.93;;
11618;SDS011;5865;48.776;9.280;2024-03-02T18:52:23;12.17;;;8.37;;
11618;SDS011;5865;48.776;9.280;2024-03-02T18:54:51;12.27;;;9.00;;
11618;SDS011;5865;48.776;9.280;2024-03-02T18:57:18;11.87;;;9.23;;
11618;SDS011;5865;48.776;9.280;2024-03-02T18:59:45;14.53;;;9.20;;
11618;SDS011;5865;48.776;9.280;2024-03-02T19:02:13;13.20;;;9.80;;
11618;SDS011;5865;48.776;9.280;2024-03-02T19:04:40;13.67;;;8.97;;
11618;SDS011;5865;48.776;9.280;2024-03-02T19:07:07;13.27;;;9.80;;
11618;SDS011;5865;48.776;9.280;2024-03-02T19:09:35;13.77;;;9.70;;
11618;SDS011;5865;48.776;9.280;2024-03-02T19:12:02;14.10;;;10.00;;
11618;SDS011;5865;48.776;9.280;2024-03-02T19:14:30;12.80;;;9.40;;
11618;SDS011;5865;48.776;9.280;2024-03-02T19:16:57;15.43;;;9.73;;
11618;SDS011;5865;48.776;9.280;2024-03-02T19:19:26;10.93;;;8.50;;
11618;SDS011;5865;48.776;9.280;2024-03-02T19:21:53;12.23;;;8.77;;
11618;SDS011;5865;48.776;9.280;2024-03-02T19:24:20;14.30;;;9.97;;
11618;SDS011;5865;48.776;9.280;2024-03-02T19:26:47;13.40;;;9.57;;
11618;SDS011;5865;48.776;9.280;2024-03-02T19:29:14;13.53;;;9.50;;
11618;SDS011;5865;48.776;9.280;2024-03-02T19:31:41;14.50;;;9.40;;
11618;SDS011;5865;48.776;9.280;2024-03-02T19:34:08;13.83;;;9.83;;
11618;SDS011;5865;48.776;9.280;2024-03-02T19:36:36;14.27;;;9.40;;
11618;SDS011;5865;48.776;9.280;2024-03-02T19:39:03;14.20;;;9.93;;
11618;SDS011;5865;48.776;9.280;2024-03-02T19:41:30;14.63;;;10.23;;
11618;SDS011;5865;48.776;9.280;2024-03-02T19:43:57;14.63;;;9.73;;
11618;SDS011;5865;48.776;9.280;2024-03-02T19:46:24;13.73;;;10.07;;
11618;SDS011;5865;48.776;9.280;2024-03-02T19:48:51;13.13;;;9.87;;
11618;SDS011;5865;48.776;9.280;2024-03-02T19:51:18;17.30;;;10.57;;
11618;SDS011;5865;48.776;9.280;2024-03-02T19:53:47;16.37;;;10.07;;
11618;SDS011;5865;48.776;9.280;2024-03-02T19:56:17;15.73;;;10.70;;
11618;SDS011;5865;48.776;9.280;2024-03-02T19:58:44;17.73;;;11.67;;
11618;SDS011;5865;48.776;9.280;2024-03-02T20:01:11;15.83;;;11.40;;
11618;SDS011;5865;48.776;9.280;2024-03-02T20:03:38;15.80;;;11.40;;
11618;SDS011;5865;48.776;9.280;2024-03-02T20:06:05;17.47;;;11.30;;
11618;SDS011;5865;48.776;9.280;2024-03-02T20:08:32;18.23;;;11.83;;
11618;SDS011;5865;48.776;9.280;2024-03-02T20:11:02;15.17;;;10.73;;
11618;SDS011;5865;48.776;9.280;2024-03-02T20:13:30;16.70;;;11.13;;